createdAt,value
2022-12-04T00:01:45.884Z,24.52
2022-12-04T00:06:47.605Z,23.30
2022-12-04T00:11:49.435Z,26.35
2022-12-04T00:16:51.231Z,24.65
2022-12-04T00:21:53.046Z,23.30
2022-12-04T00:26:54.826Z,22.25
2022-12-04T00:31:56.676Z,20.00
2022-12-04T00:36:58.421Z,23.75
2022-12-04T00:42:00.207Z,21.30
2022-12-04T00:47:01.863Z,22.40
2022-12-04T00:52:03.659Z,21.38
2022-12-04T00:57:05.330Z,21.58
2022-12-04T01:02:07.054Z,20.33
2022-12-04T01:07:08.814Z,20.40
2022-12-04T01:12:10.486Z,18.50
2022-12-04T01:17:12.104Z,19.10
2022-12-04T01:22:13.818Z,19.33
2022-12-04T01:27:15.482Z,19.02
2022-12-04T01:32:17.355Z,21.58
2022-12-04T01:37:19.248Z,22.15
2022-12-04T01:42:21.081Z,19.83
2022-12-04T01:47:22.747Z,19.00
2022-12-04T01:52:26.224Z,18.42
2022-12-04T01:57:32.103Z,16.67
2022-12-04T02:02:37.809Z,21.70
2022-12-04T02:07:40.875Z,15.38
2022-12-04T02:12:51.103Z,14.40
2022-12-04T02:18:17.199Z,13.98
2022-12-04T02:23:27.847Z,15.15
2022-12-04T02:28:55.240Z,15.05
2022-12-04T02:34:10.046Z,15.95
2022-12-04T02:39:15.126Z,14.52
2022-12-04T02:44:23.970Z,14.77
2022-12-04T02:49:32.296Z,15.00
2022-12-04T02:54:39.412Z,14.90
2022-12-04T02:59:44.108Z,15.43
2022-12-04T03:04:47.086Z,13.07
2022-12-04T03:09:54.816Z,14.80
2022-12-04T03:15:02.450Z,16.23
2022-12-04T03:20:09.764Z,14.63
2022-12-04T03:25:11.891Z,15.48
2022-12-04T03:30:19.531Z,14.52
2022-12-04T03:35:26.621Z,17.15
2022-12-04T03:40:38.973Z,15.80
2022-12-04T03:46:01.877Z,15.75
2022-12-04T03:51:16.839Z,17.80
2022-12-04T03:56:27.564Z,16.15
2022-12-04T04:01:35.344Z,15.75
2022-12-04T04:06:47.308Z,14.35
2022-12-04T04:12:10.120Z,15.85
2022-12-04T04:17:38.246Z,16.05
2022-12-04T04:22:59.507Z,19.40
2022-12-04T04:28:01.131Z,15.55
2022-12-04T04:33:16.152Z,18.65
2022-12-04T04:38:27.626Z,15.90
2022-12-04T04:43:35.059Z,15.70
2022-12-04T04:48:45.565Z,15.23
2022-12-04T04:53:50.997Z,15.23
2022-12-04T04:58:52.625Z,14.63
2022-12-04T05:03:54.263Z,14.05
2022-12-04T05:08:55.858Z,12.90
2022-12-04T05:13:57.597Z,14.27
2022-12-04T05:19:18.776Z,15.60
2022-12-04T05:24:20.454Z,15.30
2022-12-04T05:29:22.136Z,15.15
2022-12-04T05:34:24.071Z,16.10
2022-12-04T05:39:25.814Z,15.40
2022-12-04T05:44:27.424Z,18.73
2022-12-04T05:49:29.984Z,16.60
2022-12-04T05:54:31.704Z,14.23
2022-12-04T05:59:33.355Z,15.13
2022-12-04T06:04:37.270Z,16.00
2022-12-04T06:09:38.947Z,15.65
2022-12-04T06:14:40.572Z,19.02
2022-12-04T06:19:43.175Z,15.02
2022-12-04T06:24:45.121Z,15.00
2022-12-04T06:29:46.760Z,16.88
2022-12-04T06:34:52.998Z,15.30
2022-12-04T06:39:55.014Z,16.75
2022-12-04T06:44:56.928Z,17.20
2022-12-04T06:49:58.922Z,17.55
2022-12-04T06:55:00.778Z,18.17
2022-12-04T07:00:02.451Z,16.40
2022-12-04T07:05:04.246Z,19.05
2022-12-04T07:10:06.586Z,17.52
2022-12-04T07:15:08.942Z,16.95
2022-12-04T07:20:11.092Z,19.88
2022-12-04T07:25:12.715Z,18.45
2022-12-04T07:30:16.002Z,18.88
2022-12-04T07:35:17.899Z,18.67
2022-12-04T07:40:20.549Z,16.85
2022-12-04T07:45:22.252Z,19.23
2022-12-04T07:50:23.910Z,18.38
2022-12-04T07:55:25.651Z,17.70
2022-12-04T08:00:27.385Z,20.48
2022-12-04T08:05:29.073Z,20.92
2022-12-04T08:10:30.705Z,19.83
2022-12-04T08:15:33.934Z,18.73
2022-12-04T08:20:35.610Z,19.98
2022-12-04T08:25:41.392Z,20.73
2022-12-04T08:30:43.030Z,22.42
2022-12-04T08:35:44.733Z,20.80
2022-12-04T08:40:46.321Z,21.48
2022-12-04T08:45:59.083Z,20.63
2022-12-04T08:51:01.237Z,21.95
2022-12-04T08:56:03.384Z,21.48
2022-12-04T09:01:10.319Z,20.48
2022-12-04T09:06:14.014Z,20.05
2022-12-04T09:11:19.111Z,21.35
2022-12-04T09:16:23.440Z,18.38
2022-12-04T09:21:25.748Z,17.27
2022-12-04T09:26:31.021Z,20.48
2022-12-04T09:31:33.225Z,20.38
2022-12-04T09:36:34.875Z,18.98
2022-12-04T09:41:36.539Z,16.77
2022-12-04T09:46:45.492Z,23.23
2022-12-04T09:51:47.670Z,19.80
2022-12-04T09:57:10.642Z,21.83
2022-12-04T10:02:33.120Z,18.90
2022-12-04T10:07:45.345Z,18.63
2022-12-04T10:13:13.767Z,17.77
2022-12-04T10:18:35.572Z,18.90
2022-12-04T10:24:02.081Z,18.92
2022-12-04T10:29:08.441Z,17.60
2022-12-04T10:34:21.287Z,17.23
2022-12-04T10:39:35.301Z,15.95
2022-12-04T10:49:38.902Z,20.90
2022-12-04T10:54:49.287Z,18.98
2022-12-04T10:59:55.439Z,19.75
2022-12-04T11:05:04.915Z,18.23
2022-12-04T11:10:18.584Z,17.45
2022-12-04T11:15:20.409Z,20.20
2022-12-04T11:20:26.425Z,18.48
2022-12-04T11:25:35.276Z,17.92
2022-12-04T11:30:38.101Z,17.50
2022-12-04T11:35:40.194Z,18.25
2022-12-04T11:40:50.600Z,17.98
2022-12-04T11:45:56.958Z,18.73
2022-12-04T11:51:40.330Z,20.92
2022-12-04T11:56:47.071Z,16.58
2022-12-04T12:01:58.225Z,17.02
2022-12-04T12:07:42.245Z,12.50
2022-12-04T12:13:21.445Z,17.77
2022-12-04T12:18:46.720Z,19.88
2022-12-04T12:24:03.408Z,17.55
2022-12-04T12:29:40.871Z,14.20
2022-12-04T12:34:45.289Z,16.38
2022-12-04T12:40:10.184Z,13.57
2022-12-04T12:45:37.204Z,15.60
2022-12-04T12:50:45.911Z,24.65
2022-12-04T12:56:00.895Z,19.05
2022-12-04T13:01:12.882Z,16.80
2022-12-04T13:06:24.944Z,19.67
2022-12-04T13:11:29.249Z,13.85
2022-12-04T13:16:35.506Z,15.80
2022-12-04T13:22:09.699Z,18.52
2022-12-04T13:27:55.962Z,16.67
2022-12-04T13:33:16.159Z,19.15
2022-12-04T13:38:33.254Z,20.08
2022-12-04T13:43:41.050Z,18.05
2022-12-04T13:48:43.284Z,19.33
2022-12-04T13:53:45.901Z,19.85
2022-12-04T13:58:58.089Z,20.52
2022-12-04T14:04:00.080Z,18.88
2022-12-04T14:09:08.719Z,20.08
2022-12-04T14:14:29.847Z,21.25
2022-12-04T14:19:34.678Z,22.00
2022-12-04T14:24:40.026Z,21.65
2022-12-04T14:29:52.043Z,19.38
2022-12-04T14:34:54.842Z,20.02
2022-12-04T14:39:58.612Z,20.27
2022-12-04T14:45:02.338Z,22.55
2022-12-04T14:50:28.757Z,20.27
2022-12-04T14:55:30.405Z,22.77
2022-12-04T15:00:32.890Z,23.92
2022-12-04T15:05:35.122Z,23.05
2022-12-04T15:10:57.457Z,24.95
2022-12-04T15:16:08.751Z,27.20
2022-12-04T15:21:11.342Z,28.58
2022-12-04T15:26:18.907Z,26.60
2022-12-04T15:31:27.958Z,27.70
2022-12-04T15:36:47.522Z,29.05
2022-12-04T15:41:49.875Z,27.45
2022-12-04T15:46:55.116Z,25.33
2022-12-04T15:52:07.785Z,26.92
2022-12-04T15:57:29.258Z,27.10
2022-12-04T16:02:42.964Z,30.42
2022-12-04T16:08:02.647Z,27.77
2022-12-04T16:13:05.727Z,28.00
2022-12-04T16:18:11.393Z,19.38
2022-12-04T16:23:13.218Z,25.10
2022-12-04T16:28:14.808Z,28.92
2022-12-04T16:33:16.639Z,54.83
2022-12-04T16:38:19.218Z,32.45
2022-12-04T16:43:20.868Z,31.33
2022-12-04T16:48:22.542Z,25.90
2022-12-04T16:53:24.223Z,27.58
2022-12-04T16:58:25.940Z,29.55
2022-12-04T17:03:31.659Z,32.25
2022-12-04T17:08:33.595Z,28.48
2022-12-04T17:13:35.285Z,32.55
2022-12-04T17:18:36.947Z,37.00
2022-12-04T17:23:39.191Z,36.90
2022-12-04T17:28:41.462Z,35.95
2022-12-04T17:33:44.237Z,34.38
2022-12-04T17:38:46.253Z,33.15
2022-12-04T17:43:48.007Z,34.65
2022-12-04T17:48:51.100Z,35.97
2022-12-04T17:53:53.179Z,34.00
2022-12-04T17:58:55.093Z,41.50
2022-12-04T18:04:03.231Z,39.22
2022-12-04T18:09:06.890Z,40.25
2022-12-04T18:14:14.910Z,41.47
2022-12-04T18:19:16.587Z,43.00
2022-12-04T18:24:18.727Z,40.95
2022-12-04T18:29:23.148Z,43.17
2022-12-04T18:34:24.941Z,48.45
2022-12-04T18:39:27.197Z,50.20
2022-12-04T18:44:29.311Z,46.90
2022-12-04T18:49:31.062Z,43.47
2022-12-04T18:54:32.790Z,50.28
2022-12-04T18:59:36.396Z,47.17
2022-12-04T19:04:38.131Z,48.78
2022-12-04T19:15:01.596Z,47.42
2022-12-04T19:20:03.371Z,45.53
2022-12-04T19:25:06.554Z,41.10
2022-12-04T19:30:08.737Z,42.07
2022-12-04T19:35:10.629Z,42.97
2022-12-04T19:40:14.002Z,46.75
2022-12-04T19:45:15.765Z,46.25
2022-12-04T19:50:17.644Z,46.03
2022-12-04T19:55:19.303Z,49.72
2022-12-04T20:00:20.975Z,43.92
2022-12-04T20:05:22.632Z,47.33
2022-12-04T20:10:24.786Z,40.65
2022-12-04T20:15:26.445Z,44.38
2022-12-04T20:20:28.195Z,39.42
2022-12-04T20:25:29.852Z,45.15
2022-12-04T20:30:31.581Z,41.03
2022-12-04T20:35:35.872Z,46.95
2022-12-04T20:40:37.637Z,39.58
2022-12-04T20:45:39.313Z,46.70
2022-12-04T20:50:45.882Z,44.13
2022-12-04T20:55:55.197Z,42.65
2022-12-04T21:00:56.910Z,47.08
2022-12-04T21:05:58.608Z,42.85
2022-12-04T21:11:00.235Z,39.65
2022-12-04T21:16:01.974Z,52.70
2022-12-04T21:21:03.768Z,44.20
2022-12-04T21:26:05.563Z,43.72
2022-12-04T21:31:07.327Z,41.60
2022-12-04T21:36:09.767Z,45.05
2022-12-04T21:41:31.718Z,43.08
2022-12-04T21:46:33.654Z,41.55
2022-12-04T21:56:58.005Z,44.88
2022-12-04T22:01:59.725Z,49.65
2022-12-04T22:07:01.746Z,50.50
2022-12-04T22:12:10.375Z,49.30
2022-12-04T22:17:29.358Z,46.42
2022-12-04T22:22:30.951Z,55.47
2022-12-04T22:27:32.623Z,51.30
2022-12-04T22:32:34.558Z,46.92
2022-12-04T22:37:39.769Z,44.30
2022-12-04T22:42:45.743Z,48.03
2022-12-04T22:47:47.380Z,49.90
2022-12-04T22:52:49.039Z,45.45
2022-12-04T22:57:50.688Z,44.90
2022-12-04T23:02:52.526Z,51.05
2022-12-04T23:07:55.041Z,51.08
2022-12-04T23:12:56.852Z,49.33
2022-12-04T23:17:58.493Z,50.45
2022-12-04T23:23:00.262Z,46.53
2022-12-04T23:28:01.891Z,50.67
2022-12-04T23:33:03.589Z,46.05
2022-12-04T23:38:06.274Z,45.72
2022-12-04T23:43:07.952Z,48.83
2022-12-04T23:48:10.333Z,47.40
2022-12-04T23:53:12.982Z,40.75
2022-12-04T23:58:14.710Z,47.83
